createdAt,value
2022-09-05T00:00:03.159Z,8.70
2022-09-05T00:02:49.539Z,8.50
2022-09-05T00:05:26.194Z,8.13
2022-09-05T00:08:02.365Z,7.90
2022-09-05T00:11:12.775Z,7.87
2022-09-05T00:13:36.464Z,7.23
2022-09-05T00:16:30.155Z,6.97
2022-09-05T00:24:18.693Z,7.27
2022-09-05T00:24:34.657Z,7.70
2022-09-05T00:25:28.223Z,7.00
2022-09-05T00:28:25.131Z,6.57
2022-09-05T00:31:54.043Z,6.80
2022-09-05T00:34:18.552Z,7.00
2022-09-05T00:36:48.546Z,7.40
2022-09-05T00:39:21.065Z,6.83
2022-09-05T00:41:50.607Z,5.70
2022-09-05T00:44:23.491Z,5.97
2022-09-05T00:46:59.516Z,6.33
2022-09-05T00:49:37.152Z,5.47
2022-09-05T00:52:13.041Z,5.30
2022-09-05T00:55:08.802Z,5.80
2022-09-05T00:58:12.174Z,6.33
2022-09-05T01:00:52.961Z,5.73
2022-09-05T01:03:33.798Z,6.87
2022-09-05T01:06:18.325Z,5.57
2022-09-05T01:09:08.197Z,5.57
2022-09-05T01:11:46.511Z,5.40
2022-09-05T01:14:28.857Z,6.13
2022-09-05T01:17:16.057Z,6.30
2022-09-05T01:20:04.783Z,6.10
2022-09-05T01:23:10.258Z,5.43
2022-09-05T01:25:54.889Z,5.40
2022-09-05T01:29:16.678Z,5.47
2022-09-05T01:31:28.993Z,5.40
2022-09-05T01:34:06.769Z,5.10
2022-09-05T01:36:55.692Z,4.80
2022-09-05T01:40:15.354Z,4.93
2022-09-05T01:42:37.990Z,5.60
2022-09-05T01:45:16.035Z,5.17
2022-09-05T01:47:52.921Z,5.40
2022-09-05T01:50:35.573Z,5.90
2022-09-05T01:53:26.439Z,5.10
2022-09-05T01:56:10.069Z,4.40
2022-09-05T01:58:50.533Z,4.90
2022-09-05T02:01:32.899Z,4.30
2022-09-05T02:04:23.871Z,4.77
2022-09-05T02:07:19.424Z,4.07
2022-09-05T02:10:17.223Z,4.87
2022-09-05T02:12:54.448Z,4.17
2022-09-05T02:15:41.941Z,4.57
2022-09-05T02:18:23.389Z,5.20
2022-09-05T02:20:57.846Z,4.47
2022-09-05T02:23:41.581Z,4.70
2022-09-05T02:26:18.514Z,4.27
2022-09-05T02:28:53.918Z,4.47
2022-09-05T02:31:28.343Z,4.80
2022-09-05T02:34:01.886Z,4.80
2022-09-05T02:36:40.814Z,4.80
2022-09-05T02:45:01.726Z,4.50
2022-09-05T02:45:15.329Z,4.50
2022-09-05T02:45:31.113Z,5.30
2022-09-05T02:48:14.829Z,4.73
2022-09-05T02:57:29.199Z,4.60
2022-09-05T02:57:34.739Z,4.73
2022-09-05T02:57:38.557Z,5.10
2022-09-05T02:59:49.604Z,4.67
2022-09-05T03:02:27.641Z,4.90
2022-09-05T03:05:05.420Z,5.20
2022-09-05T03:08:09.116Z,5.40
2022-09-05T03:11:05.026Z,5.60
2022-09-05T03:13:54.386Z,5.17
2022-09-05T03:17:26.794Z,4.30
2022-09-05T03:20:38.985Z,4.77
2022-09-05T03:23:33.182Z,5.13
2022-09-05T03:26:33.711Z,4.40
2022-09-05T03:29:30.517Z,4.60
2022-09-05T03:32:42.106Z,4.90
2022-09-05T03:35:56.350Z,4.83
2022-09-05T03:39:02.483Z,5.27
2022-09-05T03:41:49.263Z,4.37
2022-09-05T03:44:41.440Z,5.30
2022-09-05T03:47:22.249Z,4.43
2022-09-05T03:56:20.281Z,7.00
2022-09-05T03:57:19.945Z,4.50
2022-09-05T03:57:28.164Z,5.00
2022-09-05T04:00:08.656Z,4.90
2022-09-05T04:08:09.003Z,4.20
2022-09-05T04:08:16.191Z,3.90
2022-09-05T04:08:48.925Z,4.77
2022-09-05T04:11:20.112Z,4.50
2022-09-05T04:13:52.497Z,4.60
2022-09-05T04:16:26.325Z,4.03
2022-09-05T04:18:57.810Z,4.47
2022-09-05T04:21:30.523Z,5.30
2022-09-05T04:24:07.205Z,4.67
2022-09-05T04:27:00.995Z,4.63
2022-09-05T04:29:42.757Z,5.67
2022-09-05T04:32:24.866Z,4.60
2022-09-05T04:35:23.589Z,5.03
2022-09-05T04:37:58.710Z,5.10
2022-09-05T04:40:40.109Z,5.30
2022-09-05T04:43:11.415Z,4.20
2022-09-05T04:45:42.969Z,5.33
2022-09-05T04:48:21.350Z,4.53
2022-09-05T04:51:11.699Z,5.30
2022-09-05T04:54:00.471Z,4.70
2022-09-05T04:56:32.238Z,4.43
2022-09-05T05:01:36.543Z,4.10
2022-09-05T05:06:02.698Z,4.40
2022-09-05T05:06:14.276Z,4.80
2022-09-05T05:07:42.028Z,4.27
2022-09-05T05:13:55.327Z,4.47
2022-09-05T05:18:07.470Z,4.90
2022-09-05T05:18:11.990Z,5.40
2022-09-05T05:19:18.860Z,4.93
2022-09-05T05:21:51.822Z,5.53
2022-09-05T05:24:24.946Z,4.33
2022-09-05T05:26:59.741Z,4.50
2022-09-05T05:29:38.171Z,4.20
2022-09-05T05:32:08.294Z,4.20
2022-09-05T05:34:42.727Z,4.07
2022-09-05T05:37:20.084Z,5.00
2022-09-05T05:39:59.309Z,4.50
2022-09-05T05:42:27.224Z,4.40
2022-09-05T05:44:58.429Z,4.57
2022-09-05T05:47:32.110Z,4.80
2022-09-05T11:54:57.815Z,1.90
2022-09-05T11:57:38.718Z,2.13
2022-09-05T12:00:31.091Z,2.10
2022-09-05T12:03:58.175Z,1.73
2022-09-05T12:06:49.535Z,2.53
2022-09-05T12:09:34.447Z,1.87
2022-09-05T12:12:38.527Z,1.80
2022-09-05T12:15:26.272Z,1.83
2022-09-05T12:18:27.023Z,2.07
2022-09-05T12:21:17.476Z,1.93
2022-09-05T12:24:26.364Z,1.90
2022-09-05T12:27:39.426Z,1.70
2022-09-05T12:34:35.611Z,2.60
2022-09-05T12:36:04.558Z,2.17
2022-09-05T12:41:32.538Z,2.40
2022-09-05T12:42:09.539Z,2.10
2022-09-05T12:42:10.927Z,1.87
2022-09-05T12:45:09.045Z,1.80
2022-09-05T12:47:59.540Z,2.87
2022-09-05T12:50:35.275Z,2.30
2022-09-05T12:53:08.965Z,2.20
2022-09-05T12:55:41.567Z,2.17
2022-09-05T13:02:57.756Z,2.03
2022-09-05T13:03:06.703Z,2.20
2022-09-05T13:04:26.589Z,1.90
2022-09-05T13:07:05.602Z,2.00
2022-09-05T13:10:04.711Z,1.63
2022-09-05T13:14:53.958Z,2.10
2022-09-05T13:15:27.003Z,1.80
2022-09-05T13:18:02.771Z,1.97
2022-09-05T13:20:36.776Z,1.90
2022-09-05T13:23:21.797Z,2.20
2022-09-05T13:25:58.382Z,2.17
2022-09-05T13:28:30.297Z,2.20
2022-09-05T13:33:40.146Z,2.10
2022-09-05T13:37:59.532Z,2.03
2022-09-05T13:38:10.026Z,2.30
2022-09-05T13:39:48.985Z,1.73
2022-09-05T13:42:20.761Z,2.00
2022-09-05T13:44:53.894Z,1.67
2022-09-05T13:47:41.107Z,2.10
2022-09-05T13:50:23.082Z,1.60
2022-09-05T13:52:56.571Z,1.93
2022-09-05T13:55:33.453Z,1.70
2022-09-05T13:58:07.360Z,1.60
2022-09-05T14:01:17.504Z,2.07
2022-09-05T14:07:45.082Z,1.90
2022-09-05T14:10:43.517Z,1.90
2022-09-05T14:13:18.842Z,1.80
2022-09-05T14:15:53.164Z,2.30
2022-09-05T14:18:24.119Z,2.33
2022-09-05T14:21:15.724Z,2.00
2022-09-05T14:23:53.507Z,2.03
2022-09-05T14:26:28.092Z,1.40
2022-09-05T14:29:05.973Z,1.80
2022-09-05T14:37:39.989Z,1.80
2022-09-05T14:37:49.417Z,2.00
2022-09-05T14:38:14.657Z,1.60
2022-09-05T14:41:07.422Z,1.73
2022-09-05T14:44:11.081Z,1.77
2022-09-05T14:47:05.008Z,1.50
2022-09-05T14:50:07.167Z,1.30
2022-09-05T14:52:43.505Z,1.40
2022-09-05T15:02:44.208Z,1.40
2022-09-05T15:02:57.692Z,1.80
2022-09-05T15:06:34.495Z,1.40
2022-09-05T15:12:18.206Z,2.00
2022-09-05T15:12:23.001Z,1.80
2022-09-05T15:14:52.338Z,1.20
2022-09-05T15:17:24.226Z,1.50
2022-09-05T15:20:06.638Z,1.50
2022-09-05T15:22:37.434Z,1.50
2022-09-05T15:25:18.106Z,1.70
2022-09-05T15:27:46.603Z,1.97
2022-09-05T15:30:21.626Z,1.60
2022-09-05T15:32:50.809Z,1.60
2022-09-05T15:35:36.563Z,1.50
2022-09-05T15:38:55.247Z,1.80
2022-09-05T15:41:25.632Z,1.53
2022-09-05T15:44:03.279Z,1.97
2022-09-05T15:46:51.312Z,1.97
2022-09-05T15:49:28.270Z,1.83
2022-09-05T15:51:58.255Z,1.50
2022-09-05T15:54:37.684Z,1.80
2022-09-05T15:57:15.281Z,1.60
2022-09-05T15:59:48.155Z,1.63
2022-09-05T16:02:21.706Z,1.20
2022-09-05T16:08:21.758Z,2.37
2022-09-05T16:10:40.811Z,2.17
2022-09-05T16:11:18.726Z,1.43
2022-09-05T16:13:39.691Z,1.70
2022-09-05T16:23:28.821Z,1.40
2022-09-05T16:23:28.979Z,1.27
2022-09-05T16:23:30.083Z,1.50
2022-09-05T16:24:59.506Z,2.20
2022-09-05T16:27:49.739Z,1.73
2022-09-05T16:30:22.982Z,1.50
2022-09-05T16:32:55.007Z,1.33
2022-09-05T16:35:26.692Z,1.33
2022-09-05T16:38:02.100Z,1.43
2022-09-05T16:40:32.591Z,1.70
2022-09-05T16:43:10.033Z,1.67
2022-09-05T16:45:45.576Z,1.77
2022-09-05T16:48:28.094Z,1.70
2022-09-05T16:51:15.194Z,1.30
2022-09-05T16:53:57.976Z,1.90
2022-09-05T16:56:31.749Z,1.60
2022-09-05T16:59:03.824Z,1.80
2022-09-05T17:02:05.691Z,2.13
2022-09-05T17:05:03.099Z,2.37
2022-09-05T17:07:51.664Z,1.87
2022-09-05T17:10:24.235Z,1.63
2022-09-05T17:12:52.523Z,1.70
2022-09-05T17:15:23.549Z,1.90
2022-09-05T17:18:21.558Z,1.97
2022-09-05T17:20:49.505Z,2.00
2022-09-05T17:27:08.330Z,2.33
2022-09-05T17:29:27.747Z,1.80
2022-09-05T17:29:42.214Z,2.33
2022-09-05T17:32:00.166Z,1.83
2022-09-05T17:34:46.722Z,1.90
2022-09-05T17:37:42.852Z,1.47
2022-09-05T17:40:37.982Z,2.33
2022-09-05T17:43:10.863Z,1.90
2022-09-05T17:45:53.257Z,2.43
2022-09-05T17:49:16.192Z,2.63
2022-09-05T17:52:20.573Z,2.20
2022-09-05T17:54:52.222Z,2.53
2022-09-05T17:57:41.070Z,3.30
2022-09-05T18:00:47.278Z,3.60
2022-09-05T18:04:17.024Z,3.03
2022-09-05T18:07:00.494Z,3.07
2022-09-05T18:10:12.938Z,2.83
2022-09-05T18:13:14.182Z,3.83
2022-09-05T18:16:11.996Z,3.27
2022-09-05T18:19:32.159Z,3.30
2022-09-05T18:21:48.457Z,3.67
2022-09-05T18:24:24.730Z,4.60
2022-09-05T18:27:43.918Z,4.20
2022-09-05T18:30:07.926Z,3.93
2022-09-05T18:32:42.027Z,4.90
2022-09-05T18:35:32.437Z,4.90
2022-09-05T18:38:51.641Z,4.57
2022-09-05T18:41:23.156Z,3.60
2022-09-05T18:44:13.851Z,3.77
2022-09-05T18:46:49.130Z,3.43
2022-09-05T18:50:25.090Z,4.10
2022-09-05T18:52:23.345Z,4.30
2022-09-05T18:56:09.147Z,4.13
2022-09-05T18:57:51.777Z,4.40
2022-09-05T19:00:43.933Z,5.00
2022-09-05T19:03:24.967Z,4.17
2022-09-05T19:06:00.555Z,3.77
2022-09-05T19:08:48.708Z,3.53
2022-09-05T19:11:28.932Z,4.07
2022-09-05T19:14:25.776Z,3.50
2022-09-05T19:16:49.652Z,3.87
2022-09-05T19:19:24.768Z,3.33
2022-09-05T19:22:10.419Z,3.60
2022-09-05T19:24:45.629Z,4.37
2022-09-05T19:29:00.035Z,4.07
2022-09-05T19:36:48.762Z,4.30
2022-09-05T19:36:51.696Z,4.00
2022-09-05T19:37:22.779Z,4.23
2022-09-05T19:38:42.119Z,4.40
2022-09-05T19:47:26.966Z,3.70
2022-09-05T19:47:38.546Z,4.20
2022-09-05T19:47:49.802Z,3.37
2022-09-05T19:50:11.870Z,4.63
2022-09-05T19:52:41.276Z,4.00
2022-09-05T19:55:21.878Z,4.40
2022-09-05T19:57:52.733Z,4.10
2022-09-05T20:00:42.485Z,4.07
2022-09-05T20:03:23.541Z,4.40
2022-09-05T20:05:52.013Z,3.73
2022-09-05T20:08:33.677Z,4.97
2022-09-05T20:11:02.475Z,4.17
2022-09-05T20:13:30.160Z,3.60
2022-09-05T20:16:01.235Z,4.90
2022-09-05T20:18:44.044Z,4.03
2022-09-05T20:21:13.875Z,4.43
2022-09-05T20:23:49.139Z,4.20
2022-09-05T20:26:18.402Z,4.30
2022-09-05T20:28:52.728Z,5.10
2022-09-05T20:31:28.294Z,3.83
2022-09-05T20:34:27.548Z,3.93
2022-09-05T20:43:14.456Z,4.60
2022-09-05T20:43:29.407Z,3.70
2022-09-05T20:43:29.713Z,5.07
2022-09-05T20:45:46.276Z,4.43
2022-09-05T20:54:08.194Z,3.60
2022-09-05T20:54:19.246Z,4.40
2022-09-05T20:54:31.784Z,3.70
2022-09-05T20:56:57.802Z,4.70
2022-09-05T20:59:31.816Z,3.50
2022-09-05T21:02:01.475Z,4.50
2022-09-05T21:04:32.994Z,4.93
2022-09-05T21:07:13.304Z,5.17
2022-09-05T21:09:56.080Z,5.03
2022-09-05T21:12:28.436Z,4.13
2022-09-05T21:15:28.359Z,4.83
2022-09-05T21:18:03.497Z,5.40
2022-09-05T21:20:33.196Z,5.10
2022-09-05T21:23:00.985Z,5.53
2022-09-05T21:25:43.786Z,5.37
2022-09-05T21:28:36.636Z,4.20
2022-09-05T21:31:10.592Z,5.33
2022-09-05T21:33:45.880Z,5.00
2022-09-05T21:36:15.926Z,5.50
2022-09-05T21:38:44.467Z,6.17
2022-09-05T21:41:14.398Z,5.97
2022-09-05T21:47:37.836Z,5.67
2022-09-05T21:47:47.917Z,5.40
2022-09-05T21:49:23.267Z,5.70
2022-09-05T21:51:51.780Z,5.63
2022-09-05T21:57:16.891Z,5.47
2022-09-05T21:59:19.176Z,5.13
2022-09-05T22:00:10.953Z,6.03
2022-09-05T22:02:49.623Z,6.00
2022-09-05T22:05:17.849Z,5.80
2022-09-05T22:07:45.582Z,5.80
2022-09-05T22:10:13.260Z,5.03
2022-09-05T22:12:41.004Z,5.00
2022-09-05T22:15:28.547Z,5.37
2022-09-05T22:18:16.648Z,4.50
2022-09-05T22:20:51.795Z,4.93
2022-09-05T22:23:39.459Z,5.30
2022-09-05T22:26:07.736Z,4.50
2022-09-05T22:28:38.802Z,4.90
2022-09-05T22:31:08.663Z,4.93
2022-09-05T22:33:36.569Z,5.17
2022-09-05T22:36:04.328Z,5.27
2022-09-05T22:38:32.534Z,5.00
2022-09-05T22:41:00.284Z,4.50
2022-09-05T22:43:28.147Z,4.87
2022-09-05T22:45:56.519Z,5.00
2022-09-05T22:48:25.664Z,4.20
2022-09-05T22:50:53.430Z,4.90
2022-09-05T22:53:21.330Z,5.10
2022-09-05T22:55:57.406Z,4.37
2022-09-05T22:58:25.334Z,4.77
2022-09-05T23:00:53.369Z,5.27
2022-09-05T23:03:21.300Z,4.53
2022-09-05T23:05:50.324Z,5.10
2022-09-05T23:08:18.049Z,4.97
2022-09-05T23:10:45.705Z,4.83
2022-09-05T23:13:13.572Z,4.50
2022-09-05T23:15:41.403Z,5.10
2022-09-05T23:18:09.104Z,5.10
2022-09-05T23:20:36.805Z,5.50
2022-09-05T23:23:07.427Z,5.57
2022-09-05T23:25:36.198Z,4.87
2022-09-05T23:28:06.645Z,4.63
2022-09-05T23:30:34.615Z,5.50
2022-09-05T23:33:02.300Z,5.93
2022-09-05T23:35:30.391Z,6.13
2022-09-05T23:37:58.045Z,5.10
2022-09-05T23:40:27.216Z,5.57
2022-09-05T23:42:56.537Z,5.40
2022-09-05T23:45:24.890Z,5.93
2022-09-05T23:47:52.820Z,5.73
